Time;durP1;ratioP1;P1;durP2;ratioP2;P2;SDS_P1;SDS_P2;PMS_P1;PMS_P2;Temp;Humidity;BMP_temperature;BMP_pressure;BME280_temperature;BME280_humidity;BME280_pressure;Samples;Min_cycle;Max_cycle;Signal;HPM_P1;HPM_P2
2021/04/04 00:01:00;;;;;;;25.90;5.18;;;;;;;5.96;55.90;102694.88;5131471;27;20066;-64
2021/04/04 00:03:25;;;;;;;24.58;5.40;;;;;;;6.03;55.91;102691.75;5132117;27;20045;-64
2021/04/04 00:05:50;;;;;;;24.73;5.57;;;;;;;5.94;56.23;102689.50;5132040;27;20057;-64
2021/04/04 00:08:16;;;;;;;25.52;5.30;;;;;;;5.97;56.53;102683.53;5132612;27;20055;-63
2021/04/04 00:10:41;;;;;;;25.05;5.10;;;;;;;6.00;56.58;102681.09;5131918;27;20085;-64
2021/04/04 00:13:06;;;;;;;22.70;5.10;;;;;;;5.99;56.46;102671.44;5131435;27;20034;-63
2021/04/04 00:15:32;;;;;;;28.85;5.53;;;;;;;6.05;56.52;102679.63;5132281;27;20015;-64
2021/04/04 00:17:57;;;;;;;26.83;5.18;;;;;;;6.09;56.22;102677.22;5132419;27;20115;-64
2021/04/04 00:20:22;;;;;;;28.20;5.03;;;;;;;6.13;56.17;102682.63;5131732;27;20122;-64
2021/04/04 00:22:48;;;;;;;27.08;5.20;;;;;;;6.09;56.11;102679.84;5131809;27;20063;-63
2021/04/04 00:25:15;;;;;;;25.98;5.10;;;;;;;6.08;56.88;102679.78;5130911;27;20027;-63
2021/04/04 00:27:41;;;;;;;29.90;5.57;;;;;;;6.07;56.87;102677.97;5130908;27;20034;-64
2021/04/04 00:30:12;;;;;;;24.92;4.97;;;;;;;6.07;56.92;102681.50;5132545;27;20023;-63
2021/04/04 00:32:38;;;;;;;27.30;5.35;;;;;;;6.13;56.62;102678.31;5132591;27;20103;-64
2021/04/04 00:35:16;;;;;;;24.58;4.90;;;;;;;6.05;56.75;102671.75;5131175;27;20461;-63
2021/04/04 00:37:43;;;;;;;27.33;5.53;;;;;;;6.06;56.78;102666.56;5131021;28;20080;-63
2021/04/04 00:40:16;;;;;;;23.55;4.82;;;;;;;6.01;56.54;102667.16;5132181;27;20526;-63
2021/04/04 00:42:42;;;;;;;24.48;5.22;;;;;;;6.01;57.05;102661.91;5131723;27;20053;-63
2021/04/04 00:45:10;;;;;;;26.75;5.53;;;;;;;6.01;56.62;102662.78;5131412;27;20021;-63
2021/04/04 00:47:36;;;;;;;24.88;5.25;;;;;;;5.94;56.95;102664.19;5129651;28;20031;-63
2021/04/04 00:50:04;;;;;;;23.58;5.25;;;;;;;5.92;56.53;102668.44;5131336;28;20079;-63
2021/04/04 00:52:29;;;;;;;22.67;5.35;;;;;;;5.87;56.74;102664.69;5131582;28;20397;-64
2021/04/04 00:54:54;;;;;;;24.98;5.47;;;;;;;5.86;57.27;102660.25;5130476;28;20060;-63
2021/04/04 00:57:21;;;;;;;23.90;5.10;;;;;;;5.87;57.26;102664.69;5131810;27;20469;-63
2021/04/04 00:59:46;;;;;;;23.23;5.45;;;;;;;5.85;56.65;102661.06;5132008;27;20076;-63
2021/04/04 01:02:14;;;;;;;23.17;5.25;;;;;;;5.89;56.79;102667.38;5131633;27;20027;-64
2021/04/04 01:04:41;;;;;;;23.20;5.35;;;;;;;5.90;57.05;102667.47;5130542;28;20057;-64
2021/04/04 01:07:06;;;;;;;26.13;5.53;;;;;;;5.87;57.58;102669.94;5131545;27;20024;-63
2021/04/04 01:09:32;;;;;;;25.58;5.00;;;;;;;5.90;57.12;102669.19;5129442;28;20019;-63
2021/04/04 01:12:03;;;;;;;25.35;5.47;;;;;;;5.90;57.36;102675.34;5127415;27;20451;-64
2021/04/04 01:14:35;;;;;;;22.65;5.18;;;;;;;5.90;57.35;102674.44;5129875;27;20031;-63
2021/04/04 01:17:04;;;;;;;25.88;5.10;;;;;;;5.91;57.55;102676.22;5131478;28;20019;-63
2021/04/04 01:19:50;;;;;;;26.60;5.55;;;;;;;5.95;56.71;102675.56;5127980;27;20051;-63
2021/04/04 01:22:48;;;;;;;25.10;5.70;;;;;;;5.87;57.29;102672.56;5131573;28;20020;-63
2021/04/04 01:25:26;;;;;;;25.73;5.25;;;;;;;5.82;57.48;102668.78;5129798;28;20391;-63
2021/04/04 01:27:55;;;;;;;24.13;5.30;;;;;;;5.83;57.51;102664.44;5132366;27;20381;-63
2021/04/04 01:30:24;;;;;;;25.25;5.60;;;;;;;5.86;57.64;102668.13;5130258;28;20073;-63
2021/04/04 01:32:50;;;;;;;24.30;5.60;;;;;;;5.85;57.92;102666.31;5131870;27;20019;-64
2021/04/04 01:35:18;;;;;;;22.90;5.30;;;;;;;5.88;58.36;102661.25;5131480;27;20522;-64
2021/04/04 01:37:47;;;;;;;25.58;5.45;;;;;;;5.90;58.21;102662.22;5131862;27;20055;-64
2021/04/04 01:40:15;;;;;;;25.23;5.05;;;;;;;5.90;57.44;102649.09;5135503;27;20027;-64
2021/04/04 01:42:43;;;;;;;24.60;5.32;;;;;;;5.84;58.30;102653.09;5135396;27;20080;-64
2021/04/04 01:45:09;;;;;;;26.30;5.55;;;;;;;5.82;57.96;102649.50;5134441;27;20522;-64
2021/04/04 01:47:37;;;;;;;25.98;5.55;;;;;;;5.82;58.17;102653.03;5135227;27;20027;-64
2021/04/04 01:50:05;;;;;;;27.35;5.40;;;;;;;5.83;58.08;102652.22;5135287;27;20088;-64
2021/04/04 01:52:32;;;;;;;27.83;5.60;;;;;;;5.87;58.35;102653.28;5134904;27;20048;-63
2021/04/04 01:54:59;;;;;;;26.65;5.38;;;;;;;5.89;58.24;102649.00;5134372;27;20039;-64
2021/04/04 01:57:27;;;;;;;24.85;5.20;;;;;;;5.87;58.51;102650.66;5135412;27;20027;-64
2021/04/04 01:59:53;;;;;;;27.23;5.60;;;;;;;5.88;58.05;102649.81;5134188;27;20076;-64
2021/04/04 02:02:18;;;;;;;23.65;5.50;;;;;;;5.89;58.20;102647.28;5134652;27;20389;-65
2021/04/04 02:04:44;;;;;;;26.02;5.53;;;;;;;5.91;58.70;102643.03;5134527;27;20030;-64
2021/04/04 02:07:14;;;;;;;27.15;5.57;;;;;;;5.90;58.39;102640.31;5134625;27;20107;-64
2021/04/04 02:09:40;;;;;;;23.75;5.57;;;;;;;5.86;58.60;102639.25;5134936;27;20031;-64
2021/04/04 02:12:06;;;;;;;25.17;5.78;;;;;;;5.90;58.56;102638.59;5131848;27;20027;-64
2021/04/04 02:14:34;;;;;;;26.52;6.05;;;;;;;5.85;57.93;102640.06;5134411;27;20062;-64
2021/04/04 02:17:00;;;;;;;23.33;5.85;;;;;;;5.81;58.45;102630.25;5134508;27;20027;-63
2021/04/04 02:19:27;;;;;;;23.90;5.68;;;;;;;5.84;58.26;102627.78;5134224;27;20090;-63
2021/04/04 02:21:56;;;;;;;25.50;5.63;;;;;;;5.83;59.01;102625.97;5134435;27;20031;-64
2021/04/04 02:24:22;;;;;;;25.85;5.70;;;;;;;5.81;58.94;102622.38;5133098;27;20031;-64
2021/04/04 02:26:49;;;;;;;23.48;5.88;;;;;;;5.77;59.09;102630.91;5133986;27;20038;-64
2021/04/04 02:29:14;;;;;;;22.35;5.55;;;;;;;5.78;58.76;102624.81;5134559;27;20105;-63
2021/04/04 02:31:43;;;;;;;24.80;5.50;;;;;;;5.76;58.83;102618.59;5134703;27;20141;-64
2021/04/04 02:34:13;;;;;;;26.63;5.68;;;;;;;5.77;58.53;102615.16;5132483;27;20015;-64
2021/04/04 02:36:41;;;;;;;27.02;5.78;;;;;;;5.74;59.04;102615.88;5133228;27;20107;-63
2021/04/04 02:39:16;;;;;;;24.50;5.65;;;;;;;5.73;58.76;102619.31;5133953;27;20042;-64
2021/04/04 02:41:43;;;;;;;24.05;5.63;;;;;;;5.72;59.61;102621.88;5133457;27;20035;-64
2021/04/04 02:44:10;;;;;;;25.10;5.72;;;;;;;5.70;59.42;102619.16;5133770;27;20023;-64
2021/04/04 02:46:37;;;;;;;26.85;5.53;;;;;;;5.67;59.72;102615.50;5133342;27;20027;-65
2021/04/04 02:49:07;;;;;;;24.40;5.85;;;;;;;5.63;60.00;102621.41;5133525;27;20031;-64
2021/04/04 02:51:38;;;;;;;26.27;6.15;;;;;;;5.58;59.61;102624.66;5134473;27;20023;-64
2021/04/04 02:54:05;;;;;;;26.65;6.05;;;;;;;5.58;60.23;102624.66;5134130;27;20106;-64
2021/04/04 02:56:35;;;;;;;27.48;5.88;;;;;;;5.60;60.13;102619.50;5133362;27;20080;-63
2021/04/04 02:59:03;;;;;;;26.45;6.10;;;;;;;5.62;60.30;102610.00;5133757;27;20695;-64
2021/04/04 03:01:32;;;;;;;23.75;5.60;;;;;;;5.67;59.87;102616.38;5133151;27;20514;-64
2021/04/04 03:03:57;;;;;;;23.38;6.00;;;;;;;5.70;59.71;102618.28;5133559;27;20027;-64
2021/04/04 03:06:24;;;;;;;25.38;5.65;;;;;;;5.68;60.52;102612.94;5132712;27;20397;-63
2021/04/04 03:08:52;;;;;;;25.30;5.70;;;;;;;5.65;60.43;102610.16;5133848;27;20068;-64
2021/04/04 03:11:18;;;;;;;23.13;5.93;;;;;;;5.68;60.80;102605.06;5133471;27;20028;-63
2021/04/04 03:13:48;;;;;;;25.63;5.60;;;;;;;5.71;60.25;102609.59;5133114;27;20089;-65
2021/04/04 03:16:16;;;;;;;27.58;5.88;;;;;;;5.71;60.58;102606.97;5132254;27;20026;-64
2021/04/04 03:18:43;;;;;;;25.38;6.00;;;;;;;5.65;60.00;102604.00;5133302;27;20026;-64
2021/04/04 03:21:11;;;;;;;26.25;5.70;;;;;;;5.60;59.92;102603.75;5133306;27;20050;-64
2021/04/04 03:23:39;;;;;;;24.58;5.68;;;;;;;5.61;60.31;102604.66;5133388;27;20044;-63
2021/04/04 03:26:06;;;;;;;26.75;5.75;;;;;;;5.59;60.60;102610.75;5132694;27;20042;-64
2021/04/04 03:28:32;;;;;;;24.00;5.30;;;;;;;5.66;60.00;102603.19;5132516;27;20098;-64
2021/04/04 03:30:58;;;;;;;26.05;5.85;;;;;;;5.67;60.69;102602.38;5133539;27;20075;-64
2021/04/04 03:33:24;;;;;;;25.77;6.15;;;;;;;5.64;60.72;102602.22;5133287;27;20046;-64
2021/04/04 03:35:53;;;;;;;24.55;6.10;;;;;;;5.59;60.78;102599.31;5132663;27;20358;-64
2021/04/04 03:38:21;;;;;;;25.75;5.60;;;;;;;5.52;60.65;102598.13;5132859;27;20027;-66
2021/04/04 03:40:47;;;;;;;27.13;5.90;;;;;;;5.52;60.93;102595.50;5132402;27;20027;-65
2021/04/04 03:43:23;;;;;;;27.55;6.22;;;;;;;5.50;61.19;102588.34;5132436;27;20027;-66
2021/04/04 03:45:59;;;;;;;24.42;5.88;;;;;;;5.46;61.52;102582.06;5132067;27;20027;-66
2021/04/04 03:48:27;;;;;;;25.55;5.78;;;;;;;5.47;61.87;102583.84;5130607;27;20068;-65
2021/04/04 03:50:54;;;;;;;24.52;5.60;;;;;;;5.45;62.54;102580.25;5132471;27;20516;-65
2021/04/04 03:53:21;;;;;;;26.38;5.75;;;;;;;5.45;61.84;102584.59;5132479;27;20027;-66
2021/04/04 03:55:50;;;;;;;26.95;6.07;;;;;;;5.47;61.57;102582.94;5131534;27;20015;-66
2021/04/04 03:58:18;;;;;;;27.55;5.70;;;;;;;5.49;61.46;102582.22;5131301;27;20031;-66
2021/04/04 04:00:45;;;;;;;25.60;6.28;;;;;;;5.49;61.72;102590.09;5130622;27;20419;-66
2021/04/04 04:03:12;;;;;;;25.35;5.78;;;;;;;5.47;61.61;102583.84;5132487;27;20473;-66
2021/04/04 04:05:39;;;;;;;25.38;6.18;;;;;;;5.49;62.36;102582.22;5132765;27;20031;-66
2021/04/04 04:08:05;;;;;;;24.75;5.50;;;;;;;5.50;62.12;102589.25;5131825;27;20072;-65
2021/04/04 04:10:31;;;;;;;26.75;5.85;;;;;;;5.47;63.03;102580.31;5132284;27;20019;-66
2021/04/04 04:12:58;;;;;;;24.88;5.70;;;;;;;5.44;62.68;102582.78;5132750;27;20062;-66
2021/04/04 04:15:25;;;;;;;27.90;6.43;;;;;;;5.42;63.89;102577.47;5130662;27;20458;-65
2021/04/04 04:17:50;;;;;;;23.92;5.57;;;;;;;5.40;63.42;102582.63;5132334;27;20023;-66
2021/04/04 04:20:16;;;;;;;24.40;5.97;;;;;;;5.46;61.41;102579.44;5131921;27;20062;-66
2021/04/04 04:22:43;;;;;;;27.58;5.82;;;;;;;5.40;62.03;102579.09;5129471;27;20129;-66
2021/04/04 04:25:10;;;;;;;27.48;6.18;;;;;;;5.42;62.11;102580.09;5132017;27;20038;-65
2021/04/04 04:27:36;;;;;;;24.73;5.50;;;;;;;5.44;62.42;102577.53;5132220;27;20466;-66
2021/04/04 04:30:05;;;;;;;26.83;5.88;;;;;;;5.42;62.21;102569.59;5132141;27;20041;-66
2021/04/04 04:32:34;;;;;;;26.95;6.03;;;;;;;5.41;62.08;102573.03;5132156;27;20034;-66
2021/04/04 04:35:02;;;;;;;27.23;6.25;;;;;;;5.44;62.37;102570.56;5131186;27;20038;-66
2021/04/04 04:37:29;;;;;;;27.42;5.93;;;;;;;5.46;61.66;102571.56;5130093;28;20035;-65
2021/04/04 04:39:55;;;;;;;25.73;6.25;;;;;;;5.43;61.86;102568.75;5132098;27;20413;-66
2021/04/04 04:42:21;;;;;;;26.42;6.18;;;;;;;5.45;62.17;102564.50;5132187;28;20089;-66
2021/04/04 04:44:49;;;;;;;29.27;5.97;;;;;;;5.50;62.61;102565.63;5131971;27;20019;-66
2021/04/04 04:47:15;;;;;;;23.23;5.50;;;;;;;5.55;62.21;102558.03;5129616;28;20377;-66
2021/04/04 04:49:45;;;;;;;24.33;5.50;;;;;;;5.55;62.42;102566.78;5131569;27;20024;-66
2021/04/04 04:52:12;;;;;;;26.95;5.93;;;;;;;5.53;62.94;102578.94;5131850;28;20023;-65
2021/04/04 04:54:43;;;;;;;23.67;5.68;;;;;;;5.45;63.17;102567.13;5131394;27;20032;-66
2021/04/04 04:57:12;;;;;;;26.30;5.65;;;;;;;5.37;63.50;102563.19;5131965;27;20023;-65
2021/04/04 04:59:38;;;;;;;26.65;5.90;;;;;;;5.30;63.74;102561.97;5131324;27;20057;-66
2021/04/04 05:02:06;;;;;;;28.02;6.13;;;;;;;5.19;64.53;102565.75;5131621;28;20048;-66
2021/04/04 05:04:32;;;;;;;27.50;6.40;;;;;;;5.16;63.92;102566.47;5131783;27;20019;-66
2021/04/04 05:06:58;;;;;;;28.75;5.85;;;;;;;5.02;64.92;102567.44;5132347;27;20501;-66
2021/04/04 05:09:25;;;;;;;28.13;6.30;;;;;;;5.05;64.52;102568.53;5131799;28;20031;-66
2021/04/04 05:11:52;;;;;;;24.77;5.47;;;;;;;5.05;64.90;102567.59;5132160;27;20027;-66
2021/04/04 05:14:17;;;;;;;23.63;5.68;;;;;;;5.13;64.37;102568.03;5135661;27;20035;-66
2021/04/04 05:16:47;;;;;;;24.80;5.50;;;;;;;5.09;64.81;102569.59;5135855;27;20035;-66
2021/04/04 05:19:13;;;;;;;24.60;5.90;;;;;;;5.06;64.69;102570.31;5134834;27;20051;-66
2021/04/04 05:21:41;;;;;;;23.77;5.57;;;;;;;5.04;64.73;102566.72;5135913;27;20455;-66
2021/04/04 05:24:09;;;;;;;27.52;6.00;;;;;;;4.99;66.13;102568.16;5135116;27;20019;-66
2021/04/04 05:26:36;;;;;;;26.15;6.00;;;;;;;4.91;66.33;102558.09;5135067;27;20026;-66
2021/04/04 05:29:08;;;;;;;26.45;5.75;;;;;;;4.84;66.07;102555.13;5135301;27;20457;-66
2021/04/04 05:31:34;;;;;;;24.75;5.55;;;;;;;4.85;66.67;102564.81;5135024;27;20465;-65
2021/04/04 05:34:00;;;;;;;26.50;6.43;;;;;;;4.78;67.50;102554.81;5134150;27;20398;-66
2021/04/04 05:36:26;;;;;;;23.63;5.70;;;;;;;4.74;67.90;102565.94;5135360;27;20110;-66
2021/04/04 05:38:58;;;;;;;26.15;6.10;;;;;;;4.72;67.43;102562.34;5133340;27;20141;-65
2021/04/04 05:41:24;;;;;;;25.55;6.18;;;;;;;4.73;67.60;102571.97;5134542;27;20027;-66
2021/04/04 05:43:56;;;;;;;24.83;5.82;;;;;;;4.73;67.54;102564.09;5135390;27;20023;-66
2021/04/04 05:46:32;;;;;;;27.17;5.90;;;;;;;4.77;67.05;102559.97;5133952;27;20072;-65
2021/04/04 05:49:05;;;;;;;24.63;5.78;;;;;;;4.82;67.69;102562.03;5134083;27;20465;-66
2021/04/04 05:52:12;;;;;;;24.08;6.18;;;;;;;4.91;66.88;102563.31;5135000;27;20103;-66
2021/04/04 05:55:19;;;;;;;22.58;5.72;;;;;;;5.02;66.35;102564.81;5132466;27;20426;-66
2021/04/04 05:57:54;;;;;;;26.83;5.90;;;;;;;5.04;67.17;102557.97;5071488;28;20044;-66
2021/04/04 06:00:21;;;;;;;24.55;5.68;;;;;;;4.99;67.50;102556.78;5069241;28;20040;-66
2021/04/04 06:03:11;;;;;;;24.38;5.82;;;;;;;5.01;67.06;102563.94;5071460;28;20040;-65
2021/04/04 06:06:09;;;;;;;25.77;6.07;;;;;;;5.21;65.45;102562.38;5070413;28;20239;-66
2021/04/04 06:08:55;;;;;;;25.35;5.50;;;;;;;5.24;65.49;102554.69;5071000;28;20442;-66
2021/04/04 06:11:48;;;;;;;24.27;5.05;;;;;;;5.34;65.13;102563.03;5071707;28;20153;-66
2021/04/04 06:14:52;;;;;;;24.40;5.50;;;;;;;5.35;64.68;102559.59;5070791;28;20036;-66
2021/04/04 06:18:25;;;;;;;23.50;4.70;;;;;;;5.50;63.48;102556.88;5011506;28;20026;-66
2021/04/04 06:21:11;;;;;;;24.97;5.30;;;;;;;5.48;63.11;102556.78;4908724;29;20135;-66
2021/04/04 06:23:46;;;;;;;21.17;4.72;;;;;;;5.57;62.70;102559.00;4902287;29;20049;-65
2021/04/04 06:26:23;;;;;;;21.92;4.90;;;;;;;5.61;61.70;102554.78;4906729;29;20051;-66
2021/04/04 06:29:21;;;;;;;24.52;5.07;;;;;;;5.75;61.18;102548.53;4908772;29;20503;-66
2021/04/04 06:31:53;;;;;;;23.23;5.03;;;;;;;5.63;61.20;102546.19;4895192;29;20064;-67
2021/04/04 06:34:37;;;;;;;25.08;5.20;;;;;;;5.67;60.95;102565.63;4919100;29;20150;-64
2021/04/04 06:37:09;;;;;;;21.52;4.57;;;;;;;5.71;60.51;102560.63;4933669;29;20126;-66
2021/04/04 06:39:54;;;;;;;20.35;4.40;;;;;;;5.79;60.71;102560.13;4936439;29;20039;-68
2021/04/04 06:42:29;;;;;;;24.17;5.10;;;;;;;5.82;60.76;102563.78;4936255;29;20145;-68
2021/04/04 06:45:10;;;;;;;21.75;4.82;;;;;;;5.86;60.48;102567.47;4933930;29;20519;-67
2021/04/04 06:47:47;;;;;;;24.02;5.18;;;;;;;5.87;60.73;102572.81;4944981;28;20529;-68
2021/04/04 06:50:18;;;;;;;22.45;5.07;;;;;;;5.91;60.57;102568.59;4970763;28;20031;-68
2021/04/04 06:52:58;;;;;;;23.83;5.68;;;;;;;5.97;60.78;102570.63;5009170;28;20041;-68
2021/04/04 06:55:26;;;;;;;23.60;5.30;;;;;;;6.00;60.49;102568.19;5009346;28;20123;-66
2021/04/04 06:57:52;;;;;;;22.83;5.70;;;;;;;5.93;60.79;102569.59;5070545;28;20020;-66
2021/04/04 07:00:59;;;;;;;22.80;5.53;;;;;;;5.93;60.55;102570.50;5069822;28;20364;-67
2021/04/04 07:03:27;;;;;;;21.70;4.78;;;;;;;5.92;61.13;102565.16;4991021;28;20046;-66
2021/04/04 07:06:27;;;;;;;22.25;5.35;;;;;;;5.91;60.75;102564.28;4991037;28;20227;-68
2021/04/04 07:09:10;;;;;;;24.90;5.72;;;;;;;5.93;61.46;102565.25;4983036;28;20066;-68
2021/04/04 07:12:07;;;;;;;26.65;5.30;;;;;;;6.00;60.99;102561.25;4990300;28;20038;-65
2021/04/04 07:14:51;;;;;;;22.30;5.40;;;;;;;6.05;60.50;102557.09;4988789;28;20125;-66
2021/04/04 07:17:41;;;;;;;25.10;5.82;;;;;;;6.20;59.95;102556.06;4990691;28;20031;-67
2021/04/04 07:20:19;;;;;;;23.75;5.47;;;;;;;6.16;60.28;102549.78;4988877;28;20065;-68
2021/04/04 07:23:12;;;;;;;25.77;5.70;;;;;;;6.16;58.28;102547.16;4990392;28;20038;-70
2021/04/04 07:26:02;;;;;;;23.17;5.18;;;;;;;6.05;58.58;102550.97;4988230;28;20082;-67
2021/04/04 07:28:49;;;;;;;22.58;5.25;;;;;;;6.15;58.99;102552.34;4990535;28;20496;-69
2021/04/04 07:31:17;;;;;;;22.17;5.35;;;;;;;6.12;58.83;102547.81;4989644;28;20165;-68
2021/04/04 07:33:49;;;;;;;22.48;5.70;;;;;;;6.21;58.84;102550.91;4990189;28;20046;-68
2021/04/04 07:36:27;;;;;;;21.83;5.53;;;;;;;6.19;58.98;102552.56;4989945;28;20441;-66
2021/04/04 07:39:26;;;;;;;23.23;5.53;;;;;;;6.29;58.69;102540.75;4995007;28;20496;-68
2021/04/04 07:42:06;;;;;;;24.05;5.57;;;;;;;6.12;58.50;102547.81;5069566;28;20457;-67
2021/04/04 07:44:38;;;;;;;25.20;5.43;;;;;;;6.16;58.58;102539.28;5082988;27;20448;-67
2021/04/04 07:47:15;;;;;;;23.75;5.88;;;;;;;6.18;58.74;102547.22;5132584;27;20419;-67
2021/04/04 07:50:03;;;;;;;23.92;5.90;;;;;;;6.22;58.92;102547.44;5132075;27;20542;-67
2021/04/04 07:52:45;;;;;;;24.00;5.47;;;;;;;6.42;57.83;102545.81;5066887;28;20028;-66
2021/04/04 07:55:17;;;;;;;21.77;5.22;;;;;;;6.28;58.21;102550.38;5068712;28;20048;-67
2021/04/04 07:57:58;;;;;;;23.40;5.45;;;;;;;6.55;57.51;102549.94;5069458;28;20423;-66
2021/04/04 08:00:25;;;;;;;21.67;5.28;;;;;;;6.38;58.41;102553.47;5069114;28;20571;-67
2021/04/04 08:03:14;;;;;;;23.13;6.35;;;;;;;6.38;58.20;102553.47;5069380;28;20033;-67
2021/04/04 08:05:46;;;;;;;23.27;5.32;;;;;;;6.49;58.20;102554.88;5068151;28;20024;-66
2021/04/04 08:08:18;;;;;;;22.23;5.68;;;;;;;6.56;57.55;102554.34;5069095;28;20447;-66
2021/04/04 08:11:48;;;;;;;24.58;5.90;;;;;;;6.73;56.56;102552.53;5051327;28;20082;-66
2021/04/04 08:14:20;;;;;;;22.58;5.70;;;;;;;6.53;57.80;102554.19;4950091;29;20490;-67
2021/04/04 08:16:58;;;;;;;21.70;6.22;;;;;;;6.53;58.04;102556.81;4950408;29;20086;-65
2021/04/04 08:19:25;;;;;;;24.33;6.38;;;;;;;6.59;57.07;102554.47;4950885;29;20035;-64
2021/04/04 08:22:08;;;;;;;23.65;6.32;;;;;;;6.66;56.73;102562.69;4950684;29;20043;-67
2021/04/04 08:24:43;;;;;;;24.10;6.70;;;;;;;6.58;57.17;102560.59;4950208;29;20487;-65
2021/04/04 08:27:24;;;;;;;23.90;6.22;;;;;;;6.61;57.03;102565.06;4950107;28;20089;-67
2021/04/04 08:30:00;;;;;;;26.92;7.10;;;;;;;6.51;56.45;102555.88;4973837;28;20062;-65
2021/04/04 08:32:37;;;;;;;27.00;6.82;;;;;;;6.20;57.47;102553.44;4985142;28;20163;-65
2021/04/04 08:35:06;;;;;;;23.48;6.95;;;;;;;6.13;57.41;102560.13;4986436;28;20540;-67
2021/04/04 08:37:38;;;;;;;25.10;6.50;;;;;;;6.33;57.46;102554.97;4989624;28;20041;-66
2021/04/04 08:40:10;;;;;;;25.58;6.30;;;;;;;6.61;56.24;102558.09;4988786;28;20038;-66
2021/04/04 08:42:36;;;;;;;;;;;;;;;6.73;56.12;102552.53;4989184;28;20029;-66
2021/04/04 08:45:11;;;;;;;26.85;7.60;;;;;;;6.49;57.15;102546.09;5027851;28;19912;-66
2021/04/04 08:47:40;;;;;;;23.83;7.10;;;;;;;6.18;57.29;102550.75;5045257;28;20172;-67
2021/04/04 08:50:10;;;;;;;25.08;6.88;;;;;;;6.38;56.84;102558.72;5059875;27;20095;-67
2021/04/04 08:53:00;;;;;;;23.75;5.72;;;;;;;6.49;56.89;102557.50;5136022;27;20023;-65
2021/04/04 08:55:30;;;;;;;22.42;6.57;;;;;;;6.66;57.07;102552.16;5134260;27;20023;-67
2021/04/04 08:57:59;;;;;;;24.20;6.00;;;;;;;6.77;56.75;102557.09;5134823;27;20031;-66
2021/04/04 09:00:28;;;;;;;23.40;6.03;;;;;;;6.91;56.08;102555.09;5135044;27;20027;-66
2021/04/04 09:02:59;;;;;;;21.67;5.90;;;;;;;7.08;55.18;102560.28;5134782;27;20041;-66
2021/04/04 09:05:26;;;;;;;24.15;6.15;;;;;;;7.17;54.72;102562.41;5134204;27;20030;-67
2021/04/04 09:07:56;;;;;;;22.38;5.50;;;;;;;7.30;54.39;102554.25;5136250;27;20052;-68
2021/04/04 09:10:23;;;;;;;20.75;5.25;;;;;;;7.29;53.80;102553.31;5133752;27;20378;-69
2021/04/04 09:12:49;;;;;;;23.35;5.88;;;;;;;7.12;55.24;102555.22;5135143;27;20030;-69
2021/04/04 09:15:16;;;;;;;25.95;6.50;;;;;;;7.09;55.12;102559.41;5135531;27;20401;-66
2021/04/04 09:17:57;;;;;;;23.35;6.50;;;;;;;7.12;55.26;102549.94;5135849;27;20023;-66
2021/04/04 09:20:33;;;;;;;22.65;6.47;;;;;;;7.04;54.73;102542.53;5133849;27;20134;-66
2021/04/04 09:23:01;;;;;;;23.20;6.35;;;;;;;7.00;55.68;102546.75;5134376;27;20034;-66
2021/04/04 09:25:29;;;;;;;24.05;6.07;;;;;;;7.13;54.74;102545.59;5134369;27;20031;-65
2021/04/04 09:27:57;;;;;;;24.77;6.22;;;;;;;7.22;54.52;102545.97;5135959;27;20054;-65
2021/04/04 09:30:33;;;;;;;24.10;6.68;;;;;;;7.08;53.77;102545.38;5135756;27;20533;-64
2021/04/04 09:33:02;;;;;;;23.90;6.75;;;;;;;6.77;55.30;102527.25;5134644;27;20030;-65
2021/04/04 09:35:29;;;;;;;22.88;6.40;;;;;;;6.75;56.00;102536.81;5136517;27;20102;-64
2021/04/04 09:38:00;;;;;;;23.92;6.57;;;;;;;6.78;56.38;102529.06;5135069;27;20392;-64
2021/04/04 09:40:26;;;;;;;24.65;6.13;;;;;;;7.12;55.21;102530.63;5133109;27;20027;-64
2021/04/04 09:42:52;;;;;;;23.00;6.30;;;;;;;7.59;53.74;102526.59;5135239;27;20030;-64
2021/04/04 09:45:20;;;;;;;22.58;6.57;;;;;;;7.92;52.71;102520.97;5134792;27;20080;-66
2021/04/04 09:47:46;;;;;;;21.90;5.63;;;;;;;8.19;52.12;102528.19;5135571;27;20027;-64
2021/04/04 09:50:31;;;;;;;23.02;5.95;;;;;;;8.25;51.26;102535.47;5134937;27;20023;-64
2021/04/04 09:52:57;;;;;;;22.33;5.80;;;;;;;8.26;51.26;102532.88;5132433;27;20430;-65
2021/04/04 09:55:25;;;;;;;22.25;5.80;;;;;;;8.28;50.88;102528.56;5132497;27;20027;-65
2021/04/04 09:57:54;;;;;;;23.95;6.07;;;;;;;8.21;52.44;102529.16;5134808;27;20157;-64
2021/04/04 10:00:26;;;;;;;25.58;6.35;;;;;;;8.13;50.76;102522.69;5134073;27;20482;-64
2021/04/04 10:02:52;;;;;;;23.23;6.43;;;;;;;7.38;53.75;102525.63;5135015;27;20050;-64
2021/04/04 10:05:33;;;;;;;24.58;5.95;;;;;;;7.70;53.51;102523.50;5130518;27;20042;-64
2021/04/04 10:08:15;;;;;;;22.90;5.85;;;;;;;7.62;53.24;102526.72;5133413;27;20075;-64
2021/04/04 10:10:43;;;;;;;25.85;7.10;;;;;;;7.51;54.42;102520.06;5134529;27;20035;-64
2021/04/04 10:13:09;;;;;;;26.13;7.75;;;;;;;7.47;53.99;102515.50;5134755;27;20015;-64
2021/04/04 10:15:58;;;;;;;22.60;6.95;;;;;;;7.58;55.14;102513.34;5134640;27;20358;-64
2021/04/04 10:18:25;;;;;;;25.17;7.10;;;;;;;7.82;53.18;102509.13;5131189;27;20043;-64
2021/04/04 10:20:54;;;;;;;24.73;7.18;;;;;;;8.04;53.30;102512.69;5134306;27;20066;-65
2021/04/04 10:23:27;;;;;;;21.83;6.68;;;;;;;8.27;52.80;102507.44;5133520;27;20390;-64
2021/04/04 10:26:02;;;;;;;24.63;7.50;;;;;;;8.47;52.50;102503.00;5134355;27;20023;-64
2021/04/04 10:28:48;;;;;;;25.27;7.70;;;;;;;8.60;51.76;102494.72;5133830;27;20034;-64
2021/04/04 10:31:14;;;;;;;25.05;8.88;;;;;;;7.96;52.70;102499.16;5133333;27;20023;-65
2021/04/04 10:33:39;;;;;;;23.60;7.22;;;;;;;8.06;51.71;102496.94;5134229;27;20431;-64
2021/04/04 10:36:18;;;;;;;28.88;10.15;;;;;;;7.94;52.31;102487.69;5134045;27;20025;-64
2021/04/04 10:38:44;;;;;;;27.48;9.57;;;;;;;7.74;52.37;102492.13;5133386;27;20030;-64
2021/04/04 10:41:10;;;;;;;26.42;9.85;;;;;;;7.73;52.07;102482.41;5133860;27;20051;-64
2021/04/04 10:43:46;;;;;;;27.92;9.70;;;;;;;7.89;51.82;102485.69;5134420;27;20073;-64
2021/04/04 10:46:14;;;;;;;26.40;9.43;;;;;;;8.08;52.28;102477.72;5132589;27;20385;-64
2021/04/04 10:48:47;;;;;;;28.05;9.85;;;;;;;8.41;51.52;102472.00;5134171;27;20113;-64
2021/04/04 10:51:15;;;;;;;27.75;9.65;;;;;;;8.58;50.53;102470.06;5132512;27;20015;-64
2021/04/04 10:53:41;;;;;;;26.15;9.55;;;;;;;8.66;50.26;102452.75;5133362;27;20370;-64
2021/04/04 10:56:08;;;;;;;26.00;9.25;;;;;;;8.84;50.06;102460.47;5131267;27;20095;-64
2021/04/04 10:58:34;;;;;;;27.65;9.05;;;;;;;9.14;49.66;102459.78;5133991;27;20054;-65
2021/04/04 11:01:01;;;;;;;26.92;8.80;;;;;;;8.92;49.69;102459.88;5133732;27;20031;-64
2021/04/04 11:03:28;;;;;;;25.25;8.35;;;;;;;8.53;50.77;102458.41;5133268;27;20027;-64
2021/04/04 11:05:54;;;;;;;26.17;9.02;;;;;;;8.57;50.25;102451.53;5132208;27;20031;-64
2021/04/04 11:08:19;;;;;;;30.02;10.57;;;;;;;8.31;50.97;102452.28;5133069;27;20055;-64
2021/04/04 11:10:45;;;;;;;28.58;9.68;;;;;;;8.07;53.12;102453.94;5133246;27;20121;-64
2021/04/04 11:13:15;;;;;;;26.42;10.25;;;;;;;7.90;53.80;102440.09;5133705;27;20075;-64
2021/04/04 11:15:48;;;;;;;24.77;9.32;;;;;;;8.23;52.38;102445.81;5132832;27;20065;-64
2021/04/04 11:18:17;;;;;;;27.25;10.02;;;;;;;8.55;51.73;102443.56;5133806;27;20028;-64
2021/04/04 11:20:46;;;;;;;26.67;9.15;;;;;;;8.76;51.42;102437.31;5132295;27;20051;-64
2021/04/04 11:23:16;;;;;;;26.25;10.27;;;;;;;8.37;50.25;102442.00;5132931;27;20020;-64
2021/04/04 11:25:42;;;;;;;28.00;10.20;;;;;;;8.23;52.36;102435.28;5130363;27;20117;-64
2021/04/04 11:28:15;;;;;;;29.50;10.30;;;;;;;8.06;53.16;102431.97;5132933;27;20111;-65
2021/04/04 11:30:41;;;;;;;27.27;11.10;;;;;;;8.14;53.76;102438.47;5133247;27;20477;-64
2021/04/04 11:33:16;;;;;;;27.83;10.23;;;;;;;8.32;51.70;102430.38;5133272;27;20023;-66
2021/04/04 11:36:00;;;;;;;26.58;9.93;;;;;;;8.44;52.04;102429.97;5130671;27;20031;-66
2021/04/04 11:38:27;;;;;;;30.00;10.27;;;;;;;8.63;50.44;102430.69;5132570;27;20031;-66
2021/04/04 11:41:21;;;;;;;26.20;10.15;;;;;;;8.39;51.29;102418.34;5132700;27;20477;-66
2021/04/04 11:43:50;;;;;;;24.02;8.65;;;;;;;8.14;51.65;102416.47;5132788;27;20115;-66
2021/04/04 11:46:49;;;;;;;26.85;10.55;;;;;;;8.03;52.86;102416.94;5132463;27;20549;-66